Terminal Aerodrome Forecast
Issued by NWS

Home | Current Version | Previous Version | Text Only | Print | Product List | Glossary On
Versions: 1 2 3 4 5 6 7 8 9 10 11 12 13 14
000
FTUS43 KMQT 131738
TAFIWD
TAF
KIWD 131738Z 1318/1418 08006KT 4SM -SN OVC025
     FM132100 04007KT 3SM -SHSN OVC015
     FM132300 05006KT 2SM -SN OVC015
     FM140100 04006KT 3SM -SHSN BKN015
     FM140600 36005KT P6SM -SHSN BKN015
     FM141500 30006KT P6SM OVC008
     FM141700 29007KT P6SM BKN015=

USA.gov is the U.S. government's official web portal to all federal, state and local government web resources and services.